Houston, Texas
Traffic Map
Current Weather Conditions
Houston, Texas
Scattered Clouds
Scattered Clouds
78°
Feels Like: 81°
Wind Chill: 78° Ceiling: Unl
Heat Index: 81° Visibility: 10mi
Dew Point: 75° Wind: 0mph
Humidity: 90% Direction: ° ()
Pressure: 29.93in Gusts: 0mph
Raw Report DataKIAH 300753Z 00000KT 10SM FEW035 SCT250 26/24 A2993 RMK AO2 SLP133 T02560239
Traffic Incident Summary
Active as of:
Severity:
Category:
InformationThere was an issue retrieving the traffic information for this location. Please try a different location or try again shortly.
Advertisements
Track Severe Weather on mobile